sensor_id;sensor_type;location;lat;lon;timestamp;temperature;humidity
35381;DHT22;21486;51.916;8.378;2023-10-08T00:01:49;18.00;99.90
35381;DHT22;21486;51.916;8.378;2023-10-08T00:04:17;18.10;99.90
35381;DHT22;21486;51.916;8.378;2023-10-08T00:06:46;18.20;99.90
35381;DHT22;21486;51.916;8.378;2023-10-08T00:09:11;18.20;99.90
35381;DHT22;21486;51.916;8.378;2023-10-08T00:11:37;18.10;99.90
35381;DHT22;21486;51.916;8.378;2023-10-08T00:14:04;18.10;99.90
35381;DHT22;21486;51.916;8.378;2023-10-08T00:16:34;18.20;99.90
35381;DHT22;21486;51.916;8.378;2023-10-08T00:18:59;18.20;99.90
35381;DHT22;21486;51.916;8.378;2023-10-08T00:21:28;18.20;99.90
35381;DHT22;21486;51.916;8.378;2023-10-08T00:23:55;18.20;99.90
35381;DHT22;21486;51.916;8.378;2023-10-08T00:26:23;18.10;99.90
35381;DHT22;21486;51.916;8.378;2023-10-08T00:28:56;18.10;99.90
35381;DHT22;21486;51.916;8.378;2023-10-08T00:31:22;18.10;99.90
35381;DHT22;21486;51.916;8.378;2023-10-08T00:33:52;18.00;99.90
35381;DHT22;21486;51.916;8.378;2023-10-08T00:36:17;18.10;99.90
35381;DHT22;21486;51.916;8.378;2023-10-08T00:38:44;18.00;99.90
35381;DHT22;21486;51.916;8.378;2023-10-08T00:41:13;18.00;99.90
35381;DHT22;21486;51.916;8.378;2023-10-08T00:43:40;18.00;99.90
35381;DHT22;21486;51.916;8.378;2023-10-08T00:46:06;18.10;99.90
35381;DHT22;21486;51.916;8.378;2023-10-08T00:48:45;18.10;99.90
35381;DHT22;21486;51.916;8.378;2023-10-08T00:51:11;18.10;99.90
35381;DHT22;21486;51.916;8.378;2023-10-08T00:53:50;18.00;99.90
35381;DHT22;21486;51.916;8.378;2023-10-08T00:56:18;18.10;99.90
35381;DHT22;21486;51.916;8.378;2023-10-08T00:58:45;18.10;99.90
35381;DHT22;21486;51.916;8.378;2023-10-08T01:01:14;18.10;99.90
35381;DHT22;21486;51.916;8.378;2023-10-08T01:03:42;18.00;99.90
35381;DHT22;21486;51.916;8.378;2023-10-08T01:06:09;18.20;99.90
35381;DHT22;21486;51.916;8.378;2023-10-08T01:08:36;18.00;99.90
35381;DHT22;21486;51.916;8.378;2023-10-08T01:11:21;18.00;99.90
35381;DHT22;21486;51.916;8.378;2023-10-08T01:13:56;18.00;99.90
35381;DHT22;21486;51.916;8.378;2023-10-08T01:16:24;18.00;99.90
35381;DHT22;21486;51.916;8.378;2023-10-08T01:18:52;17.90;99.90
35381;DHT22;21486;51.916;8.378;2023-10-08T01:21:19;17.90;99.90
35381;DHT22;21486;51.916;8.378;2023-10-08T01:24:00;17.80;99.90
35381;DHT22;21486;51.916;8.378;2023-10-08T01:26:27;17.70;99.90
35381;DHT22;21486;51.916;8.378;2023-10-08T01:28:55;17.60;99.90
35381;DHT22;21486;51.916;8.378;2023-10-08T01:31:21;17.60;99.90
35381;DHT22;21486;51.916;8.378;2023-10-08T01:33:46;17.50;99.90
35381;DHT22;21486;51.916;8.378;2023-10-08T01:36:24;17.50;99.90
35381;DHT22;21486;51.916;8.378;2023-10-08T01:38:51;17.40;99.90
35381;DHT22;21486;51.916;8.378;2023-10-08T01:41:17;17.40;99.90
35381;DHT22;21486;51.916;8.378;2023-10-08T01:43:46;17.40;99.90
35381;DHT22;21486;51.916;8.378;2023-10-08T01:46:12;17.40;99.90
35381;DHT22;21486;51.916;8.378;2023-10-08T01:48:38;17.40;99.90
35381;DHT22;21486;51.916;8.378;2023-10-08T01:51:04;17.30;99.90
35381;DHT22;21486;51.916;8.378;2023-10-08T01:53:39;17.30;99.90
35381;DHT22;21486;51.916;8.378;2023-10-08T01:56:05;17.30;99.90
35381;DHT22;21486;51.916;8.378;2023-10-08T01:58:30;17.30;99.90
35381;DHT22;21486;51.916;8.378;2023-10-08T02:00:58;17.20;99.90
35381;DHT22;21486;51.916;8.378;2023-10-08T02:03:25;16.90;99.90
35381;DHT22;21486;51.916;8.378;2023-10-08T02:05:52;16.60;99.90
35381;DHT22;21486;51.916;8.378;2023-10-08T02:08:19;16.10;99.90
35381;DHT22;21486;51.916;8.378;2023-10-08T02:10:45;15.90;99.90
35381;DHT22;21486;51.916;8.378;2023-10-08T02:13:13;15.50;99.90
35381;DHT22;21486;51.916;8.378;2023-10-08T02:15:49;15.10;99.90
35381;DHT22;21486;51.916;8.378;2023-10-08T02:18:17;14.90;99.90
35381;DHT22;21486;51.916;8.378;2023-10-08T02:20:43;14.80;99.90
35381;DHT22;21486;51.916;8.378;2023-10-08T02:23:08;14.70;99.90
35381;DHT22;21486;51.916;8.378;2023-10-08T02:25:37;14.40;99.90
35381;DHT22;21486;51.916;8.378;2023-10-08T02:28:03;14.30;99.90
35381;DHT22;21486;51.916;8.378;2023-10-08T02:30:29;14.00;99.90
35381;DHT22;21486;51.916;8.378;2023-10-08T02:32:54;14.10;99.90
35381;DHT22;21486;51.916;8.378;2023-10-08T02:35:20;14.00;99.90
35381;DHT22;21486;51.916;8.378;2023-10-08T02:37:45;14.00;99.90
35381;DHT22;21486;51.916;8.378;2023-10-08T02:40:11;14.00;99.90
35381;DHT22;21486;51.916;8.378;2023-10-08T02:42:51;13.90;99.90
35381;DHT22;21486;51.916;8.378;2023-10-08T02:45:16;14.10;99.90
35381;DHT22;21486;51.916;8.378;2023-10-08T02:47:43;14.10;99.90
35381;DHT22;21486;51.916;8.378;2023-10-08T02:50:12;14.10;99.90
35381;DHT22;21486;51.916;8.378;2023-10-08T02:52:42;14.00;99.90
35381;DHT22;21486;51.916;8.378;2023-10-08T02:55:10;13.80;99.90
35381;DHT22;21486;51.916;8.378;2023-10-08T02:57:48;13.70;99.90
35381;DHT22;21486;51.916;8.378;2023-10-08T03:00:16;13.70;99.90
35381;DHT22;21486;51.916;8.378;2023-10-08T03:02:41;13.60;99.90
35381;DHT22;21486;51.916;8.378;2023-10-08T03:05:07;13.60;99.90
35381;DHT22;21486;51.916;8.378;2023-10-08T03:07:33;13.40;99.90
35381;DHT22;21486;51.916;8.378;2023-10-08T03:10:00;13.50;99.90
35381;DHT22;21486;51.916;8.378;2023-10-08T03:12:31;13.50;99.90
35381;DHT22;21486;51.916;8.378;2023-10-08T03:14:58;13.70;99.90
35381;DHT22;21486;51.916;8.378;2023-10-08T03:17:30;13.70;99.90
35381;DHT22;21486;51.916;8.378;2023-10-08T03:19:55;13.80;99.90
35381;DHT22;21486;51.916;8.378;2023-10-08T03:22:44;13.90;99.90
35381;DHT22;21486;51.916;8.378;2023-10-08T03:25:12;13.80;99.90
35381;DHT22;21486;51.916;8.378;2023-10-08T03:27:45;13.70;99.90
35381;DHT22;21486;51.916;8.378;2023-10-08T03:30:13;13.70;99.90
35381;DHT22;21486;51.916;8.378;2023-10-08T03:32:44;13.50;99.90
35381;DHT22;21486;51.916;8.378;2023-10-08T03:35:10;13.50;99.90
35381;DHT22;21486;51.916;8.378;2023-10-08T03:37:37;13.50;99.90
35381;DHT22;21486;51.916;8.378;2023-10-08T03:40:07;13.60;99.90
35381;DHT22;21486;51.916;8.378;2023-10-08T03:42:49;13.50;99.90
35381;DHT22;21486;51.916;8.378;2023-10-08T03:45:15;13.70;99.90
35381;DHT22;21486;51.916;8.378;2023-10-08T03:47:48;13.60;99.90
35381;DHT22;21486;51.916;8.378;2023-10-08T03:50:28;13.60;99.90
35381;DHT22;21486;51.916;8.378;2023-10-08T03:53:06;13.50;99.90
35381;DHT22;21486;51.916;8.378;2023-10-08T03:55:39;13.40;99.90
35381;DHT22;21486;51.916;8.378;2023-10-08T03:58:08;13.40;99.90
35381;DHT22;21486;51.916;8.378;2023-10-08T04:00:44;13.30;99.90
35381;DHT22;21486;51.916;8.378;2023-10-08T04:03:11;13.30;99.90
35381;DHT22;21486;51.916;8.378;2023-10-08T04:05:39;13.30;99.90
35381;DHT22;21486;51.916;8.378;2023-10-08T04:08:24;13.30;99.90
35381;DHT22;21486;51.916;8.378;2023-10-08T04:11:10;13.30;99.90
35381;DHT22;21486;51.916;8.378;2023-10-08T04:14:03;13.40;99.90
35381;DHT22;21486;51.916;8.378;2023-10-08T04:16:29;13.30;99.90
35381;DHT22;21486;51.916;8.378;2023-10-08T04:18:55;13.20;99.90
35381;DHT22;21486;51.916;8.378;2023-10-08T04:21:21;13.20;99.90
35381;DHT22;21486;51.916;8.378;2023-10-08T04:23:47;13.10;99.90
35381;DHT22;21486;51.916;8.378;2023-10-08T04:26:17;13.00;99.90
35381;DHT22;21486;51.916;8.378;2023-10-08T04:28:43;12.90;99.90
35381;DHT22;21486;51.916;8.378;2023-10-08T04:31:08;12.90;99.90
35381;DHT22;21486;51.916;8.378;2023-10-08T04:33:43;12.80;99.90
35381;DHT22;21486;51.916;8.378;2023-10-08T04:36:10;12.70;99.90
35381;DHT22;21486;51.916;8.378;2023-10-08T04:38:35;12.80;99.90
35381;DHT22;21486;51.916;8.378;2023-10-08T04:41:05;12.70;99.90
35381;DHT22;21486;51.916;8.378;2023-10-08T04:43:34;12.60;99.90
35381;DHT22;21486;51.916;8.378;2023-10-08T04:46:03;12.50;99.90
35381;DHT22;21486;51.916;8.378;2023-10-08T04:49:07;12.50;99.90
35381;DHT22;21486;51.916;8.378;2023-10-08T04:51:43;12.30;99.90
35381;DHT22;21486;51.916;8.378;2023-10-08T04:54:11;12.40;99.90
35381;DHT22;21486;51.916;8.378;2023-10-08T04:56:44;12.40;99.90
35381;DHT22;21486;51.916;8.378;2023-10-08T04:59:09;12.50;99.90
35381;DHT22;21486;51.916;8.378;2023-10-08T05:01:37;12.40;99.90
35381;DHT22;21486;51.916;8.378;2023-10-08T05:04:14;12.40;99.90
35381;DHT22;21486;51.916;8.378;2023-10-08T05:06:49;12.30;99.90
35381;DHT22;21486;51.916;8.378;2023-10-08T05:09:15;12.40;99.90
35381;DHT22;21486;51.916;8.378;2023-10-08T05:11:45;12.40;99.90
35381;DHT22;21486;51.916;8.378;2023-10-08T05:14:21;12.40;99.90
35381;DHT22;21486;51.916;8.378;2023-10-08T05:17:04;12.40;99.90
35381;DHT22;21486;51.916;8.378;2023-10-08T05:19:37;12.40;99.90
35381;DHT22;21486;51.916;8.378;2023-10-08T05:22:05;12.60;99.90
35381;DHT22;21486;51.916;8.378;2023-10-08T05:25:03;12.50;99.90
35381;DHT22;21486;51.916;8.378;2023-10-08T05:27:40;12.30;99.90
35381;DHT22;21486;51.916;8.378;2023-10-08T05:30:12;12.40;99.90
35381;DHT22;21486;51.916;8.378;2023-10-08T05:32:42;12.30;99.90
35381;DHT22;21486;51.916;8.378;2023-10-08T05:35:26;12.30;99.90
35381;DHT22;21486;51.916;8.378;2023-10-08T05:38:14;12.20;99.90
35381;DHT22;21486;51.916;8.378;2023-10-08T05:41:00;12.10;99.90
35381;DHT22;21486;51.916;8.378;2023-10-08T05:43:28;12.20;99.90
35381;DHT22;21486;51.916;8.378;2023-10-08T05:46:12;12.30;99.90
35381;DHT22;21486;51.916;8.378;2023-10-08T05:48:47;12.30;99.90
35381;DHT22;21486;51.916;8.378;2023-10-08T05:51:31;12.30;99.90
35381;DHT22;21486;51.916;8.378;2023-10-08T05:54:12;12.30;99.90
35381;DHT22;21486;51.916;8.378;2023-10-08T05:56:59;12.20;99.90
35381;DHT22;21486;51.916;8.378;2023-10-08T05:59:37;12.30;99.90
35381;DHT22;21486;51.916;8.378;2023-10-08T06:02:21;12.20;99.90
35381;DHT22;21486;51.916;8.378;2023-10-08T06:05:00;12.10;99.90
35381;DHT22;21486;51.916;8.378;2023-10-08T06:07:46;12.00;99.90
35381;DHT22;21486;51.916;8.378;2023-10-08T06:10:28;12.00;99.90
35381;DHT22;21486;51.916;8.378;2023-10-08T06:15:44;12.00;99.90
35381;DHT22;21486;51.916;8.378;2023-10-08T06:18:19;12.10;99.90
35381;DHT22;21486;51.916;8.378;2023-10-08T06:20:46;12.10;99.90
35381;DHT22;21486;51.916;8.378;2023-10-08T06:23:11;12.10;99.90
35381;DHT22;21486;51.916;8.378;2023-10-08T06:25:39;12.10;99.90
35381;DHT22;21486;51.916;8.378;2023-10-08T06:28:14;12.10;99.90
35381;DHT22;21486;51.916;8.378;2023-10-08T06:30:47;12.10;99.90
35381;DHT22;21486;51.916;8.378;2023-10-08T06:33:13;12.10;99.90
35381;DHT22;21486;51.916;8.378;2023-10-08T06:35:39;12.10;99.90
35381;DHT22;21486;51.916;8.378;2023-10-08T06:38:10;12.10;99.90
35381;DHT22;21486;51.916;8.378;2023-10-08T06:40:35;12.10;99.90
35381;DHT22;21486;51.916;8.378;2023-10-08T06:43:01;12.20;99.90
35381;DHT22;21486;51.916;8.378;2023-10-08T06:45:46;12.20;99.90
35381;DHT22;21486;51.916;8.378;2023-10-08T06:48:12;12.10;99.90
35381;DHT22;21486;51.916;8.378;2023-10-08T06:50:46;12.10;99.90
35381;DHT22;21486;51.916;8.378;2023-10-08T06:53:11;12.20;99.90
35381;DHT22;21486;51.916;8.378;2023-10-08T06:55:39;12.20;99.90
35381;DHT22;21486;51.916;8.378;2023-10-08T06:58:05;12.20;99.90
35381;DHT22;21486;51.916;8.378;2023-10-08T07:00:32;12.30;99.90
35381;DHT22;21486;51.916;8.378;2023-10-08T07:03:14;12.20;99.90
35381;DHT22;21486;51.916;8.378;2023-10-08T07:05:46;12.20;99.90
35381;DHT22;21486;51.916;8.378;2023-10-08T07:08:25;12.30;99.90
35381;DHT22;21486;51.916;8.378;2023-10-08T07:10:52;12.40;99.90
35381;DHT22;21486;51.916;8.378;2023-10-08T07:13:19;12.40;99.90
35381;DHT22;21486;51.916;8.378;2023-10-08T07:15:50;12.40;99.90
35381;DHT22;21486;51.916;8.378;2023-10-08T07:18:16;12.70;99.90
35381;DHT22;21486;51.916;8.378;2023-10-08T07:20:50;12.70;99.90
35381;DHT22;21486;51.916;8.378;2023-10-08T07:23:22;12.70;99.90
35381;DHT22;21486;51.916;8.378;2023-10-08T07:25:55;12.60;99.90
35381;DHT22;21486;51.916;8.378;2023-10-08T07:28:43;12.60;99.90
35381;DHT22;21486;51.916;8.378;2023-10-08T07:31:13;12.80;99.90
35381;DHT22;21486;51.916;8.378;2023-10-08T07:33:43;12.80;99.90
35381;DHT22;21486;51.916;8.378;2023-10-08T07:36:12;12.70;99.90
35381;DHT22;21486;51.916;8.378;2023-10-08T07:38:40;12.60;99.90
35381;DHT22;21486;51.916;8.378;2023-10-08T07:41:08;12.60;99.90
35381;DHT22;21486;51.916;8.378;2023-10-08T07:43:33;12.70;99.90
35381;DHT22;21486;51.916;8.378;2023-10-08T07:45:59;12.60;99.90
35381;DHT22;21486;51.916;8.378;2023-10-08T07:48:25;12.70;99.90
35381;DHT22;21486;51.916;8.378;2023-10-08T07:50:55;12.80;99.90
35381;DHT22;21486;51.916;8.378;2023-10-08T07:53:21;12.80;99.90
35381;DHT22;21486;51.916;8.378;2023-10-08T07:55:46;12.90;99.90
35381;DHT22;21486;51.916;8.378;2023-10-08T07:58:13;12.80;99.90
35381;DHT22;21486;51.916;8.378;2023-10-08T08:00:40;12.90;99.90
35381;DHT22;21486;51.916;8.378;2023-10-08T08:03:06;12.70;99.90
35381;DHT22;21486;51.916;8.378;2023-10-08T08:05:31;12.60;99.90
35381;DHT22;21486;51.916;8.378;2023-10-08T08:07:58;12.60;99.90
35381;DHT22;21486;51.916;8.378;2023-10-08T08:10:31;12.60;99.90
35381;DHT22;21486;51.916;8.378;2023-10-08T08:13:03;12.50;99.90
35381;DHT22;21486;51.916;8.378;2023-10-08T08:15:33;12.50;99.90
35381;DHT22;21486;51.916;8.378;2023-10-08T08:18:01;12.60;99.90
35381;DHT22;21486;51.916;8.378;2023-10-08T08:20:30;12.80;99.90
35381;DHT22;21486;51.916;8.378;2023-10-08T08:23:04;12.80;99.90
35381;DHT22;21486;51.916;8.378;2023-10-08T08:25:37;12.60;99.90
35381;DHT22;21486;51.916;8.378;2023-10-08T08:28:11;12.50;99.90
35381;DHT22;21486;51.916;8.378;2023-10-08T08:30:43;12.50;99.90
35381;DHT22;21486;51.916;8.378;2023-10-08T08:33:12;12.40;99.90
35381;DHT22;21486;51.916;8.378;2023-10-08T08:35:38;12.50;99.90
35381;DHT22;21486;51.916;8.378;2023-10-08T08:38:03;12.40;99.90
35381;DHT22;21486;51.916;8.378;2023-10-08T08:40:31;12.50;99.90
35381;DHT22;21486;51.916;8.378;2023-10-08T08:42:58;12.70;99.90
35381;DHT22;21486;51.916;8.378;2023-10-08T08:45:27;12.80;99.90
35381;DHT22;21486;51.916;8.378;2023-10-08T08:47:56;13.00;99.90
35381;DHT22;21486;51.916;8.378;2023-10-08T08:50:22;13.10;99.90
35381;DHT22;21486;51.916;8.378;2023-10-08T08:52:48;13.20;99.90
35381;DHT22;21486;51.916;8.378;2023-10-08T08:55:14;13.20;99.90
35381;DHT22;21486;51.916;8.378;2023-10-08T08:57:43;13.20;99.90
35381;DHT22;21486;51.916;8.378;2023-10-08T09:00:11;13.10;99.90
35381;DHT22;21486;51.916;8.378;2023-10-08T09:02:40;13.30;99.90
35381;DHT22;21486;51.916;8.378;2023-10-08T09:05:06;13.60;99.90
35381;DHT22;21486;51.916;8.378;2023-10-08T09:10:20;14.10;99.90
35381;DHT22;21486;51.916;8.378;2023-10-08T09:12:51;14.40;99.90
35381;DHT22;21486;51.916;8.378;2023-10-08T09:15:17;14.40;99.90
35381;DHT22;21486;51.916;8.378;2023-10-08T09:17:43;14.40;99.90
35381;DHT22;21486;51.916;8.378;2023-10-08T09:20:09;14.50;99.90
35381;DHT22;21486;51.916;8.378;2023-10-08T09:22:35;14.30;99.90
35381;DHT22;21486;51.916;8.378;2023-10-08T09:25:00;14.20;99.90
35381;DHT22;21486;51.916;8.378;2023-10-08T09:27:30;14.60;99.90
35381;DHT22;21486;51.916;8.378;2023-10-08T09:29:56;15.10;99.90
35381;DHT22;21486;51.916;8.378;2023-10-08T09:32:21;15.10;99.90
35381;DHT22;21486;51.916;8.378;2023-10-08T09:34:51;15.00;99.90
35381;DHT22;21486;51.916;8.378;2023-10-08T09:37:17;15.00;99.90
35381;DHT22;21486;51.916;8.378;2023-10-08T09:39:43;14.60;99.90
35381;DHT22;21486;51.916;8.378;2023-10-08T09:42:11;14.40;99.90
35381;DHT22;21486;51.916;8.378;2023-10-08T09:44:37;14.60;99.90
35381;DHT22;21486;51.916;8.378;2023-10-08T09:47:03;15.10;99.90
35381;DHT22;21486;51.916;8.378;2023-10-08T09:49:32;16.50;99.90
35381;DHT22;21486;51.916;8.378;2023-10-08T09:52:02;17.70;99.90
35381;DHT22;21486;51.916;8.378;2023-10-08T09:54:28;17.50;99.90
35381;DHT22;21486;51.916;8.378;2023-10-08T09:56:59;16.90;99.90
35381;DHT22;21486;51.916;8.378;2023-10-08T09:59:27;16.00;99.90
35381;DHT22;21486;51.916;8.378;2023-10-08T10:01:54;15.70;99.90
35381;DHT22;21486;51.916;8.378;2023-10-08T10:04:24;15.60;99.90
35381;DHT22;21486;51.916;8.378;2023-10-08T10:06:50;15.70;99.90
35381;DHT22;21486;51.916;8.378;2023-10-08T10:09:22;16.00;99.90
35381;DHT22;21486;51.916;8.378;2023-10-08T10:11:48;16.00;99.90
35381;DHT22;21486;51.916;8.378;2023-10-08T10:14:15;16.10;99.90
35381;DHT22;21486;51.916;8.378;2023-10-08T10:16:42;16.10;99.90
35381;DHT22;21486;51.916;8.378;2023-10-08T10:19:16;16.10;99.90
35381;DHT22;21486;51.916;8.378;2023-10-08T10:21:41;15.80;99.90
35381;DHT22;21486;51.916;8.378;2023-10-08T10:24:21;15.80;99.90
35381;DHT22;21486;51.916;8.378;2023-10-08T10:26:47;16.00;99.90
35381;DHT22;21486;51.916;8.378;2023-10-08T10:29:18;15.80;99.90
35381;DHT22;21486;51.916;8.378;2023-10-08T10:31:45;16.20;99.90
35381;DHT22;21486;51.916;8.378;2023-10-08T10:34:16;16.60;99.90
35381;DHT22;21486;51.916;8.378;2023-10-08T10:36:42;16.60;99.90
35381;DHT22;21486;51.916;8.378;2023-10-08T10:39:09;16.60;99.90
35381;DHT22;21486;51.916;8.378;2023-10-08T10:41:59;16.60;99.90
35381;DHT22;21486;51.916;8.378;2023-10-08T10:44:32;16.80;99.90
35381;DHT22;21486;51.916;8.378;2023-10-08T10:46:58;17.10;99.90
35381;DHT22;21486;51.916;8.378;2023-10-08T10:49:46;16.70;99.90
35381;DHT22;21486;51.916;8.378;2023-10-08T10:52:14;17.50;99.90
35381;DHT22;21486;51.916;8.378;2023-10-08T10:54:51;17.90;99.90
35381;DHT22;21486;51.916;8.378;2023-10-08T10:57:26;18.60;99.90
35381;DHT22;21486;51.916;8.378;2023-10-08T11:00:01;18.00;99.90
35381;DHT22;21486;51.916;8.378;2023-10-08T11:02:44;17.70;99.90
35381;DHT22;21486;51.916;8.378;2023-10-08T11:05:14;17.80;99.90
35381;DHT22;21486;51.916;8.378;2023-10-08T11:07:46;18.50;99.90
35381;DHT22;21486;51.916;8.378;2023-10-08T11:10:11;17.90;99.90
35381;DHT22;21486;51.916;8.378;2023-10-08T11:12:41;17.10;99.90
35381;DHT22;21486;51.916;8.378;2023-10-08T11:15:13;17.40;99.90
35381;DHT22;21486;51.916;8.378;2023-10-08T11:17:41;17.20;99.90
35381;DHT22;21486;51.916;8.378;2023-10-08T11:20:27;16.90;99.90
35381;DHT22;21486;51.916;8.378;2023-10-08T11:22:52;16.20;99.90
35381;DHT22;21486;51.916;8.378;2023-10-08T11:25:22;15.90;99.90
35381;DHT22;21486;51.916;8.378;2023-10-08T11:27:56;15.90;99.90
35381;DHT22;21486;51.916;8.378;2023-10-08T11:30:27;15.70;99.90
35381;DHT22;21486;51.916;8.378;2023-10-08T11:32:59;15.80;99.90
35381;DHT22;21486;51.916;8.378;2023-10-08T11:35:25;15.80;99.90
35381;DHT22;21486;51.916;8.378;2023-10-08T11:37:57;15.70;99.90
35381;DHT22;21486;51.916;8.378;2023-10-08T11:40:24;15.80;99.90
35381;DHT22;21486;51.916;8.378;2023-10-08T11:42:54;15.60;99.90
35381;DHT22;21486;51.916;8.378;2023-10-08T11:45:22;15.50;99.90
35381;DHT22;21486;51.916;8.378;2023-10-08T11:47:52;15.60;99.90
35381;DHT22;21486;51.916;8.378;2023-10-08T11:50:27;15.00;99.90
35381;DHT22;21486;51.916;8.378;2023-10-08T11:52:57;14.80;99.90
35381;DHT22;21486;51.916;8.378;2023-10-08T11:55:26;15.30;99.90
35381;DHT22;21486;51.916;8.378;2023-10-08T11:57:52;15.40;99.90
35381;DHT22;21486;51.916;8.378;2023-10-08T12:00:17;15.60;99.90
35381;DHT22;21486;51.916;8.378;2023-10-08T12:02:50;15.80;99.90
35381;DHT22;21486;51.916;8.378;2023-10-08T12:05:19;15.70;99.90
35381;DHT22;21486;51.916;8.378;2023-10-08T12:07:49;15.30;99.90
35381;DHT22;21486;51.916;8.378;2023-10-08T12:10:16;15.30;99.90
35381;DHT22;21486;51.916;8.378;2023-10-08T12:12:50;15.30;99.90
35381;DHT22;21486;51.916;8.378;2023-10-08T12:15:18;15.50;99.90
35381;DHT22;21486;51.916;8.378;2023-10-08T12:17:48;15.20;99.90
35381;DHT22;21486;51.916;8.378;2023-10-08T12:20:33;15.10;99.90
35381;DHT22;21486;51.916;8.378;2023-10-08T12:23:00;14.90;99.90
35381;DHT22;21486;51.916;8.378;2023-10-08T12:25:25;15.00;99.90
35381;DHT22;21486;51.916;8.378;2023-10-08T12:27:51;15.10;99.90
35381;DHT22;21486;51.916;8.378;2023-10-08T12:30:16;15.20;99.90
35381;DHT22;21486;51.916;8.378;2023-10-08T12:32:42;15.10;99.90
35381;DHT22;21486;51.916;8.378;2023-10-08T12:35:09;15.00;99.90
35381;DHT22;21486;51.916;8.378;2023-10-08T12:37:40;15.10;99.90
35381;DHT22;21486;51.916;8.378;2023-10-08T12:40:09;14.90;99.90
35381;DHT22;21486;51.916;8.378;2023-10-08T12:42:53;14.90;99.90
35381;DHT22;21486;51.916;8.378;2023-10-08T12:45:19;15.20;99.90
35381;DHT22;21486;51.916;8.378;2023-10-08T12:47:49;15.20;99.90
35381;DHT22;21486;51.916;8.378;2023-10-08T12:50:15;15.10;99.90
35381;DHT22;21486;51.916;8.378;2023-10-08T12:52:44;15.10;99.90
35381;DHT22;21486;51.916;8.378;2023-10-08T12:55:19;15.20;99.90
35381;DHT22;21486;51.916;8.378;2023-10-08T12:57:52;15.20;99.90
35381;DHT22;21486;51.916;8.378;2023-10-08T13:00:23;15.30;99.90
35381;DHT22;21486;51.916;8.378;2023-10-08T13:02:49;15.20;99.90
35381;DHT22;21486;51.916;8.378;2023-10-08T13:05:20;15.70;99.90
35381;DHT22;21486;51.916;8.378;2023-10-08T13:07:52;16.20;99.90
35381;DHT22;21486;51.916;8.378;2023-10-08T13:10:19;16.40;99.90
35381;DHT22;21486;51.916;8.378;2023-10-08T13:12:47;16.80;99.90
35381;DHT22;21486;51.916;8.378;2023-10-08T13:15:13;16.90;99.90
35381;DHT22;21486;51.916;8.378;2023-10-08T13:17:38;17.50;99.90
35381;DHT22;21486;51.916;8.378;2023-10-08T13:20:09;17.50;99.90
35381;DHT22;21486;51.916;8.378;2023-10-08T13:22:37;17.40;99.90
35381;DHT22;21486;51.916;8.378;2023-10-08T13:25:02;17.20;99.90
35381;DHT22;21486;51.916;8.378;2023-10-08T13:27:30;17.00;99.90
35381;DHT22;21486;51.916;8.378;2023-10-08T13:29:55;17.10;99.90
35381;DHT22;21486;51.916;8.378;2023-10-08T13:32:21;17.40;99.90
35381;DHT22;21486;51.916;8.378;2023-10-08T13:34:46;17.40;99.70
35381;DHT22;21486;51.916;8.378;2023-10-08T13:37:12;16.90;99.90
35381;DHT22;21486;51.916;8.378;2023-10-08T13:39:40;16.30;99.90
35381;DHT22;21486;51.916;8.378;2023-10-08T13:42:05;16.10;99.90
35381;DHT22;21486;51.916;8.378;2023-10-08T13:44:31;16.00;99.90
35381;DHT22;21486;51.916;8.378;2023-10-08T13:46:57;15.70;99.90
35381;DHT22;21486;51.916;8.378;2023-10-08T13:49:24;15.60;99.90
35381;DHT22;21486;51.916;8.378;2023-10-08T13:51:52;15.60;99.90
35381;DHT22;21486;51.916;8.378;2023-10-08T13:54:21;15.40;99.90
35381;DHT22;21486;51.916;8.378;2023-10-08T13:56:47;15.30;99.90
35381;DHT22;21486;51.916;8.378;2023-10-08T13:59:15;15.50;99.90
35381;DHT22;21486;51.916;8.378;2023-10-08T14:01:42;15.60;99.90
35381;DHT22;21486;51.916;8.378;2023-10-08T14:04:17;15.60;99.90
35381;DHT22;21486;51.916;8.378;2023-10-08T14:06:45;15.70;99.90
35381;DHT22;21486;51.916;8.378;2023-10-08T14:09:17;15.80;99.90
35381;DHT22;21486;51.916;8.378;2023-10-08T14:11:46;15.80;99.90
35381;DHT22;21486;51.916;8.378;2023-10-08T14:14:12;15.80;99.90
35381;DHT22;21486;51.916;8.378;2023-10-08T14:16:41;15.80;99.90
35381;DHT22;21486;51.916;8.378;2023-10-08T14:19:12;15.80;99.90
35381;DHT22;21486;51.916;8.378;2023-10-08T14:21:38;15.80;99.90
35381;DHT22;21486;51.916;8.378;2023-10-08T14:24:15;15.70;99.90
35381;DHT22;21486;51.916;8.378;2023-10-08T14:26:41;15.70;99.90
35381;DHT22;21486;51.916;8.378;2023-10-08T14:29:07;15.60;99.90
35381;DHT22;21486;51.916;8.378;2023-10-08T14:31:36;15.30;99.90
35381;DHT22;21486;51.916;8.378;2023-10-08T14:34:06;15.30;99.90
35381;DHT22;21486;51.916;8.378;2023-10-08T14:36:41;15.20;99.90
35381;DHT22;21486;51.916;8.378;2023-10-08T14:39:25;15.20;99.90
35381;DHT22;21486;51.916;8.378;2023-10-08T14:42:10;15.30;99.90
35381;DHT22;21486;51.916;8.378;2023-10-08T14:44:54;15.30;99.90
35381;DHT22;21486;51.916;8.378;2023-10-08T14:47:19;15.30;99.90
35381;DHT22;21486;51.916;8.378;2023-10-08T14:49:45;15.30;99.90
35381;DHT22;21486;51.916;8.378;2023-10-08T14:52:13;15.20;99.90
35381;DHT22;21486;51.916;8.378;2023-10-08T14:54:39;15.20;99.90
35381;DHT22;21486;51.916;8.378;2023-10-08T14:57:04;15.20;99.90
35381;DHT22;21486;51.916;8.378;2023-10-08T14:59:31;15.20;99.90
35381;DHT22;21486;51.916;8.378;2023-10-08T15:01:57;15.10;99.90
35381;DHT22;21486;51.916;8.378;2023-10-08T15:04:26;15.10;99.90
35381;DHT22;21486;51.916;8.378;2023-10-08T15:06:54;15.10;99.90
35381;DHT22;21486;51.916;8.378;2023-10-08T15:09:20;15.20;99.90
35381;DHT22;21486;51.916;8.378;2023-10-08T15:11:52;15.30;99.90
35381;DHT22;21486;51.916;8.378;2023-10-08T15:14:18;15.20;99.90
35381;DHT22;21486;51.916;8.378;2023-10-08T15:16:45;15.30;99.90
35381;DHT22;21486;51.916;8.378;2023-10-08T15:19:15;15.30;99.90
35381;DHT22;21486;51.916;8.378;2023-10-08T15:21:41;15.30;99.90
35381;DHT22;21486;51.916;8.378;2023-10-08T15:24:06;15.30;99.90
35381;DHT22;21486;51.916;8.378;2023-10-08T15:26:40;15.30;99.90
35381;DHT22;21486;51.916;8.378;2023-10-08T15:29:05;15.20;99.90
35381;DHT22;21486;51.916;8.378;2023-10-08T15:31:31;15.20;99.90
35381;DHT22;21486;51.916;8.378;2023-10-08T15:33:56;15.20;99.90
35381;DHT22;21486;51.916;8.378;2023-10-08T15:36:22;15.10;99.90
35381;DHT22;21486;51.916;8.378;2023-10-08T15:38:48;15.10;99.90
35381;DHT22;21486;51.916;8.378;2023-10-08T15:41:13;15.10;99.90
35381;DHT22;21486;51.916;8.378;2023-10-08T15:43:39;15.00;99.90
35381;DHT22;21486;51.916;8.378;2023-10-08T15:46:05;15.00;99.90
35381;DHT22;21486;51.916;8.378;2023-10-08T15:48:31;15.00;99.90
35381;DHT22;21486;51.916;8.378;2023-10-08T15:50:59;15.00;99.90
35381;DHT22;21486;51.916;8.378;2023-10-08T15:53:24;15.00;99.90